This is the latest recevied weather packets stored in our database for station/object 9A3SWO. If no packets are shown the sender has not sent any weather packets the latest 10 day(s).
| Time | Temp. | Humidity | Pressure | Rain* | Wind** | Luminosity | Snow |
|---|---|---|---|---|---|---|---|
| 1787560685 | 25° C | 43% | 1020.7 hPa | - | - | - | - |
| 1787560084 | 26.11° C | 44% | 1020.8 hPa | - | - | - | - |
| 1787559485 | 25.56° C | 43% | 1021 hPa | - | - | - | - |
| 1787558885 | 25.56° C | 44% | 1020.9 hPa | - | - | - | - |
| 1787558286 | 25.56° C | 46% | 1020.9 hPa | - | - | - | - |
| 1787557684 | 25° C | 47% | 1021 hPa | - | - | - | - |
| 1787557085 | 25° C | 48% | 1021 hPa | - | - | - | - |
| 1787556484 | 24.44° C | 51% | 1021 hPa | - | - | - | - |
| 1787555884 | 23.89° C | 52% | 1021 hPa | - | - | - | - |
| 1787555284 | 23.89° C | 54% | 1021.2 hPa | - | - | - | - |
| 1787554684 | 23.89° C | 57% | 1021.2 hPa | - | - | - | - |
| 1787554084 | 23.33° C | 57% | 1021.3 hPa | - | - | - | - |
| 1787553485 | 22.78° C | 57% | 1021.2 hPa | - | - | - | - |
| 1787552885 | 23.33° C | 54% | 1021.2 hPa | - | - | - | - |
| 1787552285 | 23.33° C | 51% | 1021.1 hPa | - | - | - | - |
| 1787551684 | 22.78° C | 52% | 1021.3 hPa | - | - | - | - |
| 1787551084 | 22.22° C | 53% | 1021.4 hPa | - | - | - | - |
| 1787550485 | 22.22° C | 52% | 1021.3 hPa | - | - | - | - |
| 1787549884 | 21.67° C | 55% | 1021.4 hPa | - | - | - | - |
| 1787549284 | 21.67° C | 52% | 1021.3 hPa | - | - | - | - |
| 1787548684 | 23.33° C | 45% | 1021.1 hPa | - | - | - | - |
| 1787548085 | 23.33° C | 45% | 1021.2 hPa | - | - | - | - |
| 1787547485 | 22.78° C | 45% | 1021.1 hPa | - | - | - | - |
| 1787546885 | 22.78° C | 46% | 1020.9 hPa | - | - | - | - |
| 1787546284 | 22.78° C | 45% | 1020.8 hPa | - | - | - | - |
* Rain since midnight (hover to see other rain measurements)
** Current wind speed in m/s (hover to see current wind gust speed)